Time;durP1;ratioP1;P1;durP2;ratioP2;P2;SDS_P1;SDS_P2;PMS_P1;PMS_P2;Temp;Humidity;BMP_temperature;BMP_pressure;BME280_temperature;BME280_humidity;BME280_pressure;Samples;Min_cycle;Max_cycle;Signal;HPM_P1;HPM_P2
2022/04/19 00:01:18;;;;;;;4.97;2.83;;;7.70;48.10;;;3.48;68.97;95142.34;5035501;28;20079;-55
2022/04/19 00:03:43;;;;;;;5.18;2.50;;;7.60;48.00;;;3.39;69.44;95143.72;5034530;28;20025;-52
2022/04/19 00:06:09;;;;;;;3.22;2.33;;;7.60;48.10;;;3.32;69.35;95135.94;5035903;28;20065;-53
2022/04/19 00:08:35;;;;;;;3.78;2.70;;;7.50;48.10;;;3.16;69.63;95126.09;5035447;28;20064;-57
2022/04/19 00:11:07;;;;;;;3.45;2.63;;;7.50;48.20;;;3.22;69.52;95133.06;5034855;28;20496;-53
2022/04/19 00:13:41;;;;;;;4.03;2.42;;;7.40;48.40;;;3.14;69.84;95136.06;5034267;28;20025;-54
2022/04/19 00:16:16;;;;;;;5.68;2.72;;;7.40;48.50;;;3.09;70.66;95131.47;5034329;28;20558;-54
2022/04/19 00:18:42;;;;;;;4.53;2.50;;;7.40;48.90;;;3.05;71.29;95132.16;5035445;28;20033;-51
2022/04/19 00:21:08;;;;;;;3.05;2.25;;;7.30;48.80;;;3.01;70.79;95127.34;5035152;28;20052;-54
2022/04/19 00:23:34;;;;;;;4.05;2.50;;;7.30;49.00;;;2.95;71.38;95120.38;5050734;28;20040;-50
2022/04/19 00:25:59;;;;;;;4.43;2.92;;;7.20;49.10;;;2.86;72.09;95118.31;5033941;28;20112;-51
2022/04/19 00:28:28;;;;;;;5.10;3.08;;;7.20;49.30;;;2.83;72.68;95121.38;5034081;28;20399;-53
2022/04/19 00:31:00;;;;;;;4.43;2.88;;;7.20;49.70;;;2.77;73.13;95110.72;5035094;28;20033;-50
2022/04/19 00:33:29;;;;;;;5.55;2.80;;;7.10;50.10;;;2.72;73.21;95115.06;5033741;28;20063;-51
2022/04/19 00:35:58;;;;;;;6.05;3.10;;;7.00;50.40;;;2.66;73.21;95118.59;5034222;28;20366;-51
2022/04/19 00:38:23;;;;;;;5.30;2.90;;;7.00;50.60;;;2.62;73.50;95109.56;5034014;28;20033;-52
2022/04/19 00:40:49;;;;;;;5.05;2.75;;;6.90;51.40;;;2.61;73.58;95111.41;5033890;28;20111;-51
2022/04/19 00:43:18;;;;;;;3.85;2.92;;;6.90;51.10;;;2.64;73.37;95115.41;5032339;28;20498;-55
2022/04/19 00:45:44;;;;;;;5.68;3.05;;;6.90;51.40;;;2.65;73.29;95107.28;5032357;28;20116;-52
2022/04/19 00:48:12;;;;;;;4.72;2.85;;;6.90;51.50;;;2.80;72.69;95106.06;5033563;28;20121;-56
2022/04/19 00:50:38;;;;;;;4.03;2.50;;;6.90;51.70;;;2.91;71.77;95108.69;5033482;28;20086;-56
2022/04/19 00:53:11;;;;;;;4.45;2.35;;;6.90;51.70;;;3.02;71.49;95112.34;5033511;28;20100;-56
2022/04/19 00:55:38;;;;;;;4.40;2.38;;;6.90;51.60;;;3.01;71.11;95103.66;5034776;28;20048;-57
2022/04/19 00:58:06;;;;;;;3.78;2.80;;;7.00;51.30;;;2.92;71.48;95101.59;5017039;28;20491;-53
2022/04/19 01:00:38;;;;;;;4.85;3.05;;;7.00;51.20;;;2.84;71.51;95099.31;5033343;28;20400;-54
2022/04/19 01:03:03;;;;;;;5.70;2.85;;;6.90;51.20;;;2.77;72.38;95108.09;5050130;28;20033;-51
2022/04/19 01:05:32;;;;;;;3.78;3.10;;;6.90;51.00;;;2.68;72.32;95100.78;5033276;28;20133;-51
2022/04/19 01:07:58;;;;;;;6.00;3.10;;;6.90;51.20;;;2.72;72.46;95099.28;5033088;28;20026;-50
2022/04/19 01:10:33;;;;;;;4.43;2.65;;;6.90;51.40;;;2.75;71.90;95091.72;5015612;28;20028;-50
2022/04/19 01:13:19;;;;;;;6.47;2.92;;;6.90;51.70;;;2.76;71.70;95085.47;5034379;28;20484;-50
2022/04/19 01:15:50;;;;;;;4.47;2.95;;;6.90;51.80;;;2.80;71.99;95098.97;5033066;28;20112;-52
2022/04/19 01:18:24;;;;;;;4.28;2.88;;;6.90;51.80;;;2.82;71.31;95090.81;5033084;28;20026;-50
2022/04/19 01:20:59;;;;;;;4.57;2.90;;;6.90;52.00;;;2.87;71.08;95083.84;5016682;28;20550;-51
2022/04/19 01:23:25;;;;;;;4.13;2.72;;;6.90;51.90;;;2.89;70.58;95092.34;5049533;28;20029;-51
2022/04/19 01:26:03;;;;;;;4.05;2.83;;;6.90;51.80;;;2.92;70.94;95085.81;5034034;28;20025;-50
2022/04/19 01:28:31;;;;;;;4.05;2.85;;;7.00;51.80;;;2.95;70.71;95091.41;5032805;28;20121;-52
2022/04/19 01:31:04;;;;;;;4.22;2.67;;;7.00;52.00;;;3.01;70.41;95094.97;5033934;28;20607;-50
2022/04/19 01:33:33;;;;;;;5.25;2.78;;;7.10;52.00;;;3.02;70.85;95086.03;5033010;28;20128;-55
2022/04/19 01:36:09;;;;;;;5.05;3.05;;;7.10;52.00;;;3.01;70.51;95084.44;5033765;28;20040;-49
2022/04/19 01:38:37;;;;;;;5.93;3.30;;;7.00;52.00;;;2.97;70.43;95083.28;5033924;28;20025;-54
2022/04/19 01:41:11;;;;;;;4.35;2.63;;;7.10;51.90;;;2.95;70.57;95080.91;5049201;28;20025;-51
2022/04/19 01:43:41;;;;;;;6.88;2.63;;;7.10;52.00;;;2.93;70.46;95079.53;5032342;28;20030;-51
2022/04/19 01:46:11;;;;;;;6.35;2.65;;;7.10;52.60;;;2.95;70.75;95075.63;5033793;28;20032;-53
2022/04/19 01:48:45;;;;;;;4.18;3.03;;;7.10;52.00;;;2.97;70.43;95070.94;5032515;28;20467;-51
2022/04/19 01:51:12;;;;;;;4.93;2.80;;;7.10;52.00;;;3.00;70.46;95074.94;5032417;28;20551;-53
2022/04/19 01:53:38;;;;;;;4.22;2.80;;;7.10;52.10;;;2.94;70.18;95062.69;5032398;28;20037;-52
2022/04/19 01:56:07;;;;;;;4.25;2.85;;;7.10;52.10;;;2.97;70.40;95072.75;5032378;28;20480;-52
2022/04/19 01:58:39;;;;;;;5.32;2.80;;;7.10;52.10;;;2.94;70.23;95068.75;5032358;28;20502;-50
2022/04/19 02:01:15;;;;;;;3.58;2.42;;;7.10;52.10;;;2.97;70.57;95070.13;5048730;28;20518;-53
2022/04/19 02:03:41;;;;;;;5.55;2.90;;;7.10;52.00;;;2.90;70.43;95069.44;5032233;28;20120;-51
2022/04/19 02:06:12;;;;;;;5.68;3.10;;;7.10;51.80;;;2.87;70.85;95069.91;5032124;28;20116;-50
2022/04/19 02:08:38;;;;;;;4.22;2.90;;;7.00;51.70;;;2.83;71.33;95072.19;5032238;28;20456;-53
2022/04/19 02:11:07;;;;;;;5.15;3.30;;;7.00;51.60;;;2.78;72.09;95069.44;5032999;28;20425;-53
2022/04/19 02:13:39;;;;;;;5.35;3.30;;;7.00;51.70;;;2.74;72.13;95069.09;5032031;28;20137;-56
2022/04/19 02:16:11;;;;;;;3.85;3.17;;;6.90;51.70;;;2.68;71.58;95083.16;5048593;28;20040;-57
2022/04/19 02:18:36;;;;;;;3.67;2.90;;;6.90;51.70;;;2.60;71.88;95074.78;5015567;28;20086;-53
2022/04/19 02:21:14;;;;;;;5.03;3.17;;;6.80;51.50;;;2.46;72.93;95064.50;5032751;28;20029;-54
2022/04/19 02:23:40;;;;;;;4.97;3.13;;;6.80;51.90;;;2.40;72.93;95059.34;5033015;28;20381;-52
2022/04/19 02:26:09;;;;;;;7.97;2.95;;;6.70;51.70;;;2.25;73.31;95059.75;5048263;28;20552;-54
2022/04/19 02:28:35;;;;;;;5.20;3.53;;;6.60;51.80;;;2.16;73.53;95055.84;5032946;28;20029;-50
2022/04/19 02:31:01;;;;;;;4.93;2.92;;;6.50;52.00;;;2.06;73.74;95054.56;5032817;28;20037;-50
2022/04/19 02:33:30;;;;;;;4.18;2.90;;;6.50;52.30;;;2.03;74.41;95052.38;5032739;28;20029;-54
2022/04/19 02:36:10;;;;;;;4.43;3.40;;;6.40;52.40;;;1.96;74.37;95043.00;5031524;28;20013;-55
2022/04/19 02:38:37;;;;;;;4.38;3.13;;;6.40;52.70;;;1.93;74.97;95046.88;5031601;28;20045;-53
2022/04/19 02:41:04;;;;;;;5.80;3.50;;;6.30;52.60;;;1.89;74.74;95047.56;5032739;28;20464;-54
2022/04/19 02:43:33;;;;;;;10.65;3.33;;;6.20;52.70;;;1.80;74.50;95050.47;5031516;28;20120;-54
2022/04/19 02:46:09;;;;;;;5.47;3.42;;;6.20;52.80;;;1.70;74.88;95052.84;5047890;28;20025;-52
2022/04/19 02:48:40;;;;;;;4.72;3.22;;;6.10;52.80;;;1.66;75.35;95050.84;5032662;28;20100;-54
2022/04/19 02:51:09;;;;;;;5.93;4.20;;;6.10;52.80;;;1.57;76.19;95045.94;5032461;28;20400;-55
2022/04/19 02:53:37;;;;;;;4.88;3.53;;;6.00;52.80;;;1.53;76.65;95051.81;5032576;28;20036;-52
2022/04/19 02:56:04;;;;;;;4.85;3.67;;;5.90;53.00;;;1.49;76.89;95048.84;5032515;28;20026;-54
2022/04/19 02:58:36;;;;;;;4.78;3.42;;;5.90;53.00;;;1.52;76.68;95053.66;5032504;28;20035;-50
2022/04/19 03:01:02;;;;;;;5.35;3.70;;;5.80;53.10;;;1.51;76.80;95049.44;5014754;28;20021;-51
2022/04/19 03:03:30;;;;;;;5.07;3.53;;;5.80;53.20;;;1.39;76.84;95025.75;5032355;28;20022;-55
2022/04/19 03:06:05;;;;;;;5.30;3.70;;;5.80;53.50;;;1.46;76.24;95043.25;5047652;28;20025;-51
2022/04/19 03:08:34;;;;;;;5.35;3.88;;;5.80;53.60;;;1.40;76.35;95050.16;5031105;28;20029;-54
2022/04/19 03:11:03;;;;;;;7.10;4.13;;;5.70;53.50;;;1.30;77.14;95039.38;5031918;28;20045;-51
2022/04/19 03:13:38;;;;;;;5.70;4.32;;;5.70;53.60;;;1.26;77.38;95048.72;5031207;28;20026;-50
2022/04/19 03:16:04;;;;;;;6.13;3.90;;;5.60;54.00;;;1.26;77.67;95054.78;5031092;28;20079;-50
2022/04/19 03:18:33;;;;;;;6.95;4.15;;;5.60;53.90;;;1.26;77.50;95057.41;5031037;28;20109;-50
2022/04/19 03:21:12;;;;;;;5.82;3.80;;;5.60;54.20;;;1.22;77.57;95050.97;5030974;28;20411;-51
2022/04/19 03:29:09;;;;;;;4.85;3.45;;;5.50;54.60;;;1.14;77.03;95052.06;5027436;28;20033;-50
2022/04/19 03:31:35;;;;;;;6.32;3.30;;;5.40;54.40;;;1.07;77.28;95046.09;5030885;28;20071;-51
2022/04/19 03:34:03;;;;;;;7.05;4.20;;;5.40;54.40;;;0.96;78.26;95046.81;5034631;28;20029;-50
2022/04/19 03:36:33;;;;;;;8.43;3.92;;;5.40;54.60;;;1.00;78.70;95044.53;5035003;28;20029;-51
2022/04/19 03:39:07;;;;;;;5.65;3.47;;;5.30;54.70;;;0.93;78.74;95048.03;5034955;28;20022;-51
2022/04/19 03:41:33;;;;;;;5.07;3.85;;;5.30;55.00;;;0.86;78.66;95049.13;5035959;28;20116;-49
2022/04/19 03:44:01;;;;;;;5.60;4.10;;;5.30;54.80;;;0.82;79.14;95054.00;5034795;28;20101;-50
2022/04/19 03:47:06;;;;;;;6.03;4.18;;;5.20;55.00;;;0.79;78.73;95045.78;5035912;28;20507;-50
2022/04/19 03:49:22;;;;;;;5.53;3.80;;;5.20;55.10;;;0.76;78.94;95049.63;5035848;28;20040;-50
2022/04/19 03:51:50;;;;;;;5.97;3.80;;;5.10;55.00;;;0.69;79.16;95041.84;5035760;28;21433;-50
2022/04/19 03:54:19;;;;;;;6.88;3.95;;;5.10;55.00;;;0.67;79.43;95043.06;5035811;28;20036;-51
2022/04/19 03:56:45;;;;;;;8.07;4.13;;;5.00;55.10;;;0.61;79.64;95042.09;5035786;28;20491;-51
2022/04/19 03:59:13;;;;;;;7.50;4.60;;;5.00;55.10;;;0.55;79.83;95042.94;5034658;28;20087;-51
2022/04/19 04:01:45;;;;;;;7.88;4.45;;;5.00;55.20;;;0.57;80.06;95042.75;5034412;28;20026;-50
2022/04/19 04:04:14;;;;;;;6.85;4.10;;;4.90;55.50;;;0.53;80.07;95029.25;5034568;28;20036;-49
2022/04/19 04:06:39;;;;;;;5.68;3.92;;;4.90;55.60;;;0.51;80.33;95041.00;5034232;28;20053;-50
2022/04/19 04:09:05;;;;;;;6.95;4.03;;;4.90;55.60;;;0.49;80.40;95035.16;5035608;28;20114;-50
2022/04/19 04:11:32;;;;;;;7.28;4.25;;;4.90;55.80;;;0.49;80.70;95040.41;5050637;28;20104;-51
2022/04/19 04:14:09;;;;;;;6.38;4.28;;;4.90;55.90;;;0.44;80.65;95033.97;5050878;28;20033;-55
2022/04/19 04:16:35;;;;;;;5.05;3.90;;;4.90;56.00;;;0.45;81.00;95040.81;5034109;28;20030;-50
2022/04/19 04:19:04;;;;;;;7.15;4.20;;;4.80;55.80;;;0.43;80.75;95040.22;5035381;28;20061;-50
2022/04/19 04:21:33;;;;;;;6.55;4.53;;;4.80;55.90;;;0.36;81.33;95043.94;5050864;28;20044;-55
2022/04/19 04:24:02;;;;;;;6.85;4.55;;;4.80;56.10;;;0.42;81.15;95050.94;5033948;28;20037;-52
2022/04/19 04:26:40;;;;;;;8.32;4.88;;;4.80;56.10;;;0.42;81.34;95045.69;5034058;28;20030;-53
2022/04/19 04:29:09;;;;;;;5.75;4.57;;;4.80;56.20;;;0.38;80.78;95040.06;5033946;28;20392;-52
2022/04/19 04:31:34;;;;;;;6.78;4.55;;;4.80;56.10;;;0.37;81.26;95043.69;5033891;28;20025;-50
2022/04/19 04:34:10;;;;;;;7.95;4.38;;;4.80;56.30;;;0.42;81.38;95048.31;5033938;28;20034;-50
2022/04/19 04:36:36;;;;;;;8.38;4.10;;;4.80;56.50;;;0.45;81.25;95035.59;5034307;28;20039;-52
2022/04/19 04:39:11;;;;;;;6.25;4.55;;;4.80;56.50;;;0.52;81.24;95053.06;5033716;28;20025;-51
2022/04/19 04:41:40;;;;;;;6.20;4.20;;;4.80;56.80;;;0.55;80.75;95056.06;5033645;28;20029;-51
2022/04/19 04:44:09;;;;;;;8.32;5.90;;;4.90;56.70;;;0.56;81.02;95049.78;5033524;28;20040;-52
2022/04/19 04:52:11;;;;;;;7.47;4.65;;;5.00;57.10;;;0.71;80.20;95061.78;5034813;28;20160;-53
2022/04/19 04:54:42;;;;;;;6.15;4.50;;;5.00;57.00;;;0.74;80.03;95051.66;5034056;28;20060;-51
2022/04/19 04:57:09;;;;;;;6.22;4.35;;;5.00;56.90;;;0.66;79.92;95044.88;5033443;28;20025;-50
2022/04/19 04:59:38;;;;;;;7.00;4.47;;;5.10;56.80;;;0.79;80.01;95053.66;5033540;28;20388;-50
2022/04/19 05:02:05;;;;;;;6.95;4.28;;;5.20;56.80;;;0.82;80.16;95051.41;5049876;28;20030;-49
2022/04/19 05:04:32;;;;;;;6.88;4.53;;;5.20;56.70;;;1.03;80.16;95055.41;5034457;28;20033;-49
2022/04/19 05:06:59;;;;;;;9.43;4.43;;;5.30;56.60;;;1.33;79.32;95050.25;5034453;28;20030;-49
2022/04/19 05:09:28;;;;;;;13.30;7.95;;;5.40;56.60;;;1.66;78.72;95056.13;5033247;28;20037;-55
2022/04/19 05:11:57;;;;;;;6.47;4.18;;;5.60;56.70;;;1.95;78.16;95055.34;5034095;28;20212;-52
2022/04/19 05:14:23;;;;;;;7.93;4.05;;;5.70;56.60;;;2.19;76.55;95056.19;5001341;28;20083;-55
2022/04/19 05:16:49;;;;;;;6.30;4.03;;;5.90;56.60;;;2.41;75.25;95061.72;5033132;28;20466;-54
2022/04/19 05:19:15;;;;;;;8.07;3.80;;;6.10;56.50;;;2.66;74.78;95060.75;5031984;28;20029;-53
2022/04/19 05:21:41;;;;;;;5.80;3.42;;;6.40;56.30;;;2.87;73.59;95049.66;5013859;28;20393;-52
2022/04/19 05:24:10;;;;;;;17.88;3.97;;;6.60;56.20;;;3.18;72.84;95055.59;5031490;28;20033;-55
2022/04/19 05:26:37;;;;;;;9.60;3.58;;;6.90;56.00;;;3.48;72.01;95056.25;5022384;28;20030;-52
2022/04/19 05:29:03;;;;;;;9.35;3.65;;;7.20;55.70;;;3.82;71.47;95055.56;5027938;28;20492;-53
2022/04/19 05:31:30;;;;;;;9.73;3.72;;;7.60;55.50;;;4.12;70.70;95053.47;5032172;28;20056;-55
2022/04/19 05:33:56;;;;;;;4.03;2.65;;;7.90;55.20;;;4.52;69.86;95047.31;5048441;28;20044;-50
2022/04/19 05:36:22;;;;;;;5.15;3.00;;;8.30;55.00;;;4.84;69.03;95052.81;5030721;28;20033;-50
2022/04/19 05:38:52;;;;;;;5.15;2.80;;;8.60;54.70;;;5.19;68.37;95054.38;5043869;28;20043;-49
2022/04/19 05:41:20;;;;;;;5.10;2.55;;;8.90;54.30;;;5.52;66.69;95053.50;5046115;28;20025;-50
2022/04/19 05:43:47;;;;;;;4.82;2.72;;;9.30;54.00;;;5.84;65.28;95054.66;5033219;28;20026;-49
2022/04/19 05:46:13;;;;;;;7.57;3.00;;;9.70;53.60;;;6.17;63.67;95056.34;5030059;28;20124;-50
2022/04/19 05:48:39;;;;;;;5.18;2.72;;;10.10;53.20;;;6.43;62.06;95062.72;5030092;28;20022;-50
2022/04/19 05:51:05;;;;;;;5.10;2.40;;;10.50;52.80;;;6.76;61.66;95059.00;5029140;28;20389;-50
2022/04/19 05:53:34;;;;;;;4.65;2.90;;;10.80;52.20;;;7.04;59.56;95062.38;5017208;28;20037;-50
2022/04/19 05:55:59;;;;;;;3.13;2.40;;;11.20;51.70;;;7.35;58.89;95063.38;5021338;28;20052;-50
2022/04/19 05:58:31;;;;;;;3.72;2.28;;;11.60;51.20;;;7.61;56.91;95062.44;5023838;28;20025;-53
2022/04/19 06:00:57;;;;;;;4.60;2.67;;;12.00;50.60;;;7.85;57.02;95064.69;5027763;28;20492;-50
2022/04/19 06:06:12;;;;;;;3.70;2.50;;;12.80;49.40;;;8.33;55.22;95068.00;5033238;28;20107;-54
2022/04/19 06:08:37;;;;;;;4.80;2.70;;;13.10;48.80;;;8.62;53.91;95063.03;5032098;28;20060;-50
2022/04/19 06:11:12;;;;;;;3.97;2.20;;;13.50;48.40;;;9.01;53.55;95065.94;5031115;28;20069;-50
2022/04/19 06:13:40;;;;;;;3.42;2.20;;;13.90;47.80;;;9.41;53.80;95066.97;5028433;28;20076;-50
2022/04/19 06:16:06;;;;;;;3.90;2.53;;;14.20;47.50;;;9.81;53.10;95067.09;5027894;28;20033;-50
2022/04/19 06:18:33;;;;;;;3.15;2.20;;;14.60;47.10;;;10.12;51.05;95073.09;5015164;28;20144;-50
2022/04/19 06:20:59;;;;;;;3.10;2.25;;;15.00;46.50;;;10.40;49.49;95066.31;5031649;28;20481;-52
2022/04/19 06:23:34;;;;;;;4.35;1.98;;;15.30;45.90;;;10.70;49.23;95067.22;5031759;28;20025;-51
2022/04/19 06:26:03;;;;;;;2.33;1.80;;;15.70;45.10;;;10.87;47.08;95064.94;5031737;28;20480;-54
2022/04/19 06:28:29;;;;;;;3.08;1.98;;;16.00;44.50;;;10.96;47.36;95073.94;5031983;28;20061;-57
2022/04/19 06:30:55;;;;;;;4.18;1.92;;;16.40;43.40;;;11.19;46.20;95068.94;5032520;28;20068;-53
2022/04/19 06:33:20;;;;;;;4.85;2.22;;;16.70;42.80;;;11.37;46.43;95062.13;5031420;28;20052;-55
2022/04/19 06:35:47;;;;;;;3.33;2.10;;;16.90;42.20;;;11.48;46.46;95061.75;5032579;28;20394;-52
2022/04/19 06:38:13;;;;;;;2.40;2.05;;;17.10;41.70;;;11.60;46.66;95071.25;5031534;28;20029;-54
2022/04/19 06:40:38;;;;;;;5.38;2.00;;;17.40;41.20;;;11.54;45.87;95065.16;5030063;28;20140;-52
2022/04/19 06:43:04;;;;;;;3.70;2.25;;;17.60;40.60;;;11.61;46.30;95068.28;5020591;28;20150;-57
2022/04/19 06:45:33;;;;;;;4.63;2.53;;;17.80;40.20;;;11.81;46.62;95072.56;5030436;28;20033;-53
2022/04/19 06:48:03;;;;;;;2.50;2.10;;;18.00;39.80;;;12.15;45.42;95080.47;5026254;28;20156;-54
2022/04/19 06:50:32;;;;;;;3.55;2.33;;;18.20;39.30;;;12.23;45.27;95077.19;5027643;28;20440;-52
2022/04/19 06:53:04;;;;;;;8.00;2.33;;;18.50;38.90;;;12.30;45.05;95079.50;5025936;28;20432;-55
2022/04/19 06:55:39;;;;;;;3.00;1.98;;;18.70;38.40;;;12.51;44.60;95085.38;5021386;28;20500;-54
2022/04/19 06:58:04;;;;;;;5.65;2.40;;;18.90;37.70;;;12.67;43.81;95077.94;5012570;28;20481;-56
2022/04/19 07:00:40;;;;;;;5.65;2.20;;;19.20;37.40;;;12.80;43.37;95074.53;5011607;28;20109;-53
2022/04/19 07:03:05;;;;;;;3.08;2.20;;;19.40;36.70;;;13.01;43.52;95079.56;5012604;28;20481;-56
2022/04/19 07:05:40;;;;;;;3.70;2.03;;;19.60;36.60;;;13.34;42.34;95072.34;5012571;28;20034;-56
2022/04/19 07:08:11;;;;;;;4.03;2.05;;;19.90;35.90;;;13.57;41.71;95078.63;5011612;28;20497;-55
2022/04/19 07:10:37;;;;;;;3.78;2.25;;;20.10;35.60;;;13.67;41.76;95077.69;5012831;28;20046;-58
2022/04/19 07:13:15;;;;;;;4.03;2.00;;;20.40;35.20;;;13.78;41.12;95073.69;5027727;28;20542;-59
2022/04/19 07:15:41;;;;;;;3.30;2.00;;;20.60;34.30;;;13.82;41.19;95072.81;5012542;28;20026;-58
2022/04/19 07:18:09;;;;;;;2.83;1.80;;;20.80;34.10;;;14.15;40.97;95075.38;5031160;28;20029;-54
2022/04/19 07:28:56;;;;;;;1.98;1.75;;;21.90;32.50;;;15.31;38.35;95073.06;5032281;28;20072;-57
2022/04/19 07:31:25;;;;;;;3.15;1.95;;;22.20;32.00;;;15.45;37.38;95070.34;5047338;28;20032;-52
2022/04/19 07:33:51;;;;;;;4.85;1.83;;;22.40;31.40;;;15.67;37.55;95077.59;5032012;28;20029;-57
2022/04/19 07:36:20;;;;;;;2.90;1.98;;;22.60;31.00;;;15.67;36.18;95074.91;5031921;28;20048;-56
2022/04/19 07:38:52;;;;;;;4.78;1.95;;;22.70;30.00;;;15.93;36.67;95070.41;5030788;28;20573;-58
2022/04/19 07:41:25;;;;;;;2.92;1.95;;;22.90;29.90;;;16.08;36.42;95074.56;5047299;28;20502;-56
2022/04/19 07:43:52;;;;;;;2.85;2.08;;;23.10;29.70;;;16.41;35.69;95064.22;5030869;28;20035;-53
2022/04/19 07:46:21;;;;;;;2.70;2.10;;;23.40;29.60;;;16.53;35.18;95068.97;5030836;28;20034;-51
2022/04/19 07:48:51;;;;;;;2.03;1.83;;;23.60;29.10;;;16.92;33.92;95075.34;5032075;28;20546;-51
2022/04/19 07:51:24;;;;;;;2.60;2.08;;;23.90;28.90;;;16.83;33.99;95072.69;5031968;28;20053;-54
2022/04/19 07:53:53;;;;;;;3.08;2.50;;;24.20;28.30;;;17.03;33.13;95070.47;5030706;28;20497;-51
2022/04/19 07:56:19;;;;;;;2.30;2.10;;;24.40;27.90;;;17.29;33.21;95075.81;5047257;28;20064;-56
2022/04/19 07:58:49;;;;;;;3.38;2.47;;;24.60;27.70;;;17.60;33.41;95061.34;5031991;28;20057;-52
2022/04/19 08:01:20;;;;;;;3.88;2.13;;;24.80;27.40;;;17.85;33.31;95067.78;5030584;28;20041;-55
2022/04/19 08:03:46;;;;;;;2.30;2.10;;;25.00;27.20;;;17.81;33.90;95064.94;5030545;28;20492;-50
2022/04/19 08:06:12;;;;;;;5.90;2.20;;;25.20;27.10;;;18.13;33.18;95060.03;5030495;28;20087;-54
2022/04/19 08:08:42;;;;;;;2.90;2.38;;;25.40;26.90;;;18.56;32.57;95059.78;5031972;28;20030;-51
2022/04/19 08:11:14;;;;;;;2.90;2.20;;;25.70;26.70;;;19.03;31.18;95056.94;5030404;28;20501;-50
2022/04/19 08:13:39;;;;;;;2.50;2.20;;;26.00;26.20;;;19.21;31.33;95054.88;5031930;28;20441;-54
2022/04/19 08:16:08;;;;;;;3.45;2.22;;;26.30;26.00;;;19.63;29.28;95060.94;5030756;28;20113;-55
2022/04/19 08:18:37;;;;;;;4.10;2.35;;;26.50;25.50;;;19.90;29.27;95056.06;5048508;28;20544;-58
2022/04/19 08:21:09;;;;;;;3.28;2.40;;;26.70;25.30;;;19.96;29.40;95060.13;5035384;28;20037;-56
2022/04/19 08:23:38;;;;;;;4.32;2.55;;;27.00;25.00;;;19.98;29.30;95057.88;5035501;28;20439;-56
2022/04/19 08:26:03;;;;;;;3.05;2.50;;;27.00;24.70;;;19.60;29.53;95037.31;5033927;28;20032;-53
2022/04/19 08:28:36;;;;;;;4.28;2.63;;;27.10;24.30;;;19.48;29.78;95044.59;5050665;28;20034;-53
2022/04/19 08:31:02;;;;;;;3.92;2.58;;;27.20;24.00;;;19.48;29.70;95048.06;5029814;28;20033;-56
2022/04/19 08:33:28;;;;;;;3.67;2.40;;;27.20;24.00;;;19.84;30.14;95052.03;5015264;28;20584;-56
2022/04/19 08:35:56;;;;;;;2.95;2.58;;;27.40;24.00;;;20.08;29.50;95051.22;5032482;28;20108;-55
2022/04/19 08:38:22;;;;;;;2.70;2.50;;;27.50;23.90;;;20.22;29.83;95048.19;5035173;28;20033;-56
2022/04/19 08:40:48;;;;;;;3.00;2.50;;;27.60;23.80;;;20.30;29.56;95042.66;5034905;28;20113;-53
2022/04/19 08:43:14;;;;;;;3.08;2.67;;;27.80;23.80;;;20.28;28.74;95039.53;5034655;28;20053;-55
2022/04/19 08:45:39;;;;;;;2.92;2.63;;;27.90;23.40;;;20.25;29.22;95037.50;5034803;28;20048;-57
2022/04/19 08:48:09;;;;;;;3.10;2.60;;;28.10;23.20;;;20.42;29.12;95038.38;5034855;28;20026;-56
2022/04/19 08:50:36;;;;;;;5.72;2.70;;;28.20;23.20;;;20.36;29.69;95039.72;5034635;28;20059;-55
2022/04/19 08:58:33;;;;;;;2.78;2.58;;;28.70;22.90;;;20.71;29.39;95038.09;5034737;28;20057;-52
2022/04/19 09:00:59;;;;;;;2.92;2.67;;;28.70;22.50;;;21.05;28.19;95041.41;5033437;28;20041;-56
2022/04/19 09:03:28;;;;;;;3.00;2.65;;;28.80;22.50;;;21.09;28.21;95030.66;5034565;28;20021;-55
2022/04/19 09:05:57;;;;;;;4.13;2.72;;;28.80;22.30;;;21.11;27.49;95034.59;5033461;28;20033;-53
2022/04/19 09:08:22;;;;;;;3.70;2.75;;;29.00;22.10;;;21.39;27.39;95025.72;5033250;28;20033;-57
2022/04/19 09:11:08;;;;;;;4.57;3.00;;;29.00;22.10;;;21.52;27.03;95026.44;5034148;28;20052;-56
2022/04/19 09:13:35;;;;;;;4.97;2.78;;;29.20;21.70;;;22.04;27.52;95038.97;5049585;28;20411;-56
2022/04/19 09:16:06;;;;;;;3.10;2.53;;;29.20;21.90;;;21.63;26.36;95013.94;5033349;28;20105;-55
2022/04/19 09:18:36;;;;;;;3.00;2.60;;;29.40;21.50;;;21.63;26.62;95022.88;5034401;28;20025;-54
2022/04/19 09:21:04;;;;;;;3.78;2.80;;;29.50;21.30;;;21.40;27.56;95027.28;5034068;28;20063;-56
2022/04/19 09:23:32;;;;;;;3.80;3.05;;;29.60;21.30;;;21.54;26.92;95024.16;5023510;28;20080;-55
2022/04/19 09:26:03;;;;;;;2.92;2.55;;;29.60;21.20;;;21.73;26.47;95016.13;5013101;28;20053;-56
2022/04/19 09:28:33;;;;;;;3.88;2.85;;;29.70;21.10;;;22.15;26.00;95027.22;5013344;28;20041;-53
2022/04/19 09:31:14;;;;;;;4.43;2.85;;;29.80;21.00;;;22.56;25.46;95013.44;5013342;28;20025;-55
2022/04/19 09:33:40;;;;;;;2.67;2.47;;;30.00;20.90;;;22.97;25.38;95008.50;5013060;28;20033;-54
2022/04/19 09:36:09;;;;;;;4.20;3.22;;;30.20;20.90;;;23.21;24.43;95012.84;5021393;28;20026;-56
2022/04/19 09:38:50;;;;;;;3.28;2.95;;;30.40;20.70;;;23.49;24.91;95007.94;5033926;28;20027;-55
2022/04/19 09:41:34;;;;;;;3.13;2.88;;;30.60;20.60;;;23.51;24.88;94997.50;5032592;28;20419;-53
2022/04/19 09:44:29;;;;;;;4.00;3.28;;;30.80;20.40;;;23.33;23.79;94996.38;5033877;28;20029;-57
2022/04/19 09:47:08;;;;;;;5.63;3.58;;;31.00;20.10;;;23.56;24.03;94993.69;5029152;28;20037;-54
2022/04/19 09:50:04;;;;;;;3.72;3.15;;;31.00;19.90;;;23.95;24.07;94993.59;5032681;28;20029;-56
2022/04/19 09:52:38;;;;;;;4.22;3.22;;;31.10;19.80;;;24.15;23.51;94992.34;5031336;28;20065;-55
2022/04/19 09:55:11;;;;;;;5.30;3.47;;;31.20;19.80;;;24.22;23.10;94978.88;5032447;28;20139;-55
2022/04/19 09:57:41;;;;;;;4.78;3.78;;;31.50;19.70;;;24.53;23.63;94979.69;5033665;28;20412;-54
2022/04/19 10:00:14;;;;;;;4.05;3.65;;;31.80;19.70;;;25.04;22.91;94978.38;5032200;28;20068;-55
2022/04/19 10:08:19;;;;;;;5.65;4.13;;;32.60;18.80;;;25.20;21.11;94975.50;5032456;28;20556;-56
2022/04/19 10:10:47;;;;;;;4.68;4.18;;;32.90;18.60;;;25.19;22.29;94965.75;5032087;28;20053;-56
2022/04/19 10:13:17;;;;;;;5.38;4.30;;;33.00;18.50;;;25.09;21.02;94965.22;5048590;28;20028;-56
2022/04/19 10:15:43;;;;;;;4.70;4.10;;;33.10;18.30;;;25.28;21.55;94961.56;5032016;28;20017;-52
2022/04/19 10:18:12;;;;;;;5.03;4.18;;;33.10;18.20;;;25.11;21.10;94959.41;5032175;28;20036;-55
2022/04/19 10:21:09;;;;;;;6.13;4.53;;;33.20;17.90;;;25.25;20.70;94961.53;5033101;28;20052;-53
2022/04/19 10:23:39;;;;;;;5.03;4.15;;;33.20;17.80;;;25.39;21.30;94948.84;5040569;28;20121;-57
2022/04/19 10:26:24;;;;;;;4.45;4.03;;;33.30;17.70;;;25.64;21.04;94956.47;5015352;28;20112;-56
2022/04/19 10:28:58;;;;;;;6.10;4.82;;;33.40;17.60;;;25.82;19.99;94953.91;5031823;28;20029;-55
2022/04/19 10:31:35;;;;;;;7.65;4.55;;;33.50;17.50;;;25.95;21.16;94957.09;5032939;28;20029;-55
2022/04/19 10:34:07;;;;;;;4.53;4.10;;;33.60;17.40;;;26.28;20.24;94946.03;5032832;28;20021;-55
2022/04/19 10:36:33;;;;;;;4.70;4.30;;;33.70;17.30;;;25.92;19.87;94945.03;5032865;28;20064;-55
2022/04/19 10:39:14;;;;;;;7.00;4.68;;;33.80;17.30;;;26.03;20.68;94945.88;5032893;28;20484;-57
2022/04/19 10:42:03;;;;;;;5.25;4.75;;;33.90;17.30;;;25.68;20.97;94940.91;5032560;28;20160;-56
2022/04/19 10:44:43;;;;;;;4.80;4.40;;;34.00;17.20;;;25.81;20.81;94941.44;5031715;28;20526;-54
2022/04/19 10:47:18;;;;;;;5.03;4.63;;;34.10;17.10;;;25.99;21.16;94938.84;5032596;28;20033;-57
2022/04/19 10:50:05;;;;;;;7.72;5.00;;;34.20;17.10;;;26.36;20.88;94940.63;5033047;28;20029;-57
2022/04/19 10:52:37;;;;;;;7.63;5.65;;;34.30;17.20;;;26.05;20.66;94940.84;5031432;28;20068;-57
2022/04/19 10:55:33;;;;;;;5.90;5.20;;;34.40;16.90;;;26.37;20.83;94928.56;5032513;28;20451;-56
2022/04/19 10:58:12;;;;;;;6.18;5.57;;;34.50;17.00;;;26.15;20.59;94927.63;5029069;28;20037;-53
2022/04/19 11:00:41;;;;;;;7.22;5.80;;;34.60;16.60;;;25.81;21.63;94930.50;5031298;28;20503;-56
2022/04/19 11:03:09;;;;;;;7.75;6.47;;;34.50;16.60;;;25.37;20.51;94932.06;5030044;28;20072;-57
2022/04/19 11:05:56;;;;;;;6.82;6.22;;;34.30;16.30;;;25.47;20.41;94929.81;5029795;28;20092;-55
2022/04/19 11:08:37;;;;;;;7.03;5.80;;;34.20;16.40;;;25.57;20.84;94916.28;5031623;28;20088;-57
2022/04/19 11:11:20;;;;;;;5.68;5.10;;;34.10;16.40;;;25.38;21.75;94911.03;5031386;28;20095;-58
2022/04/19 11:14:15;;;;;;;5.68;4.70;;;34.20;16.60;;;25.56;21.25;94916.66;5032392;28;20049;-58